Time;durP1;ratioP1;P1;durP2;ratioP2;P2;SDS_P1;SDS_P2;PMS_P1;PMS_P2;Temp;Humidity;BMP_temperature;BMP_pressure;BME280_temperature;BME280_humidity;BME280_pressure;Samples;Min_cycle;Max_cycle;Signal;HPM_P1;HPM_P2
2023/01/04 00:01:36;;;;;;;5.00;2.93;;;4.60;99.90;;;;;;4983182;28;20230;-83
2023/01/04 00:04:04;;;;;;;6.97;2.90;;;4.70;99.90;;;;;;4985801;28;20255;-81
2023/01/04 00:06:31;;;;;;;4.60;2.37;;;4.70;99.90;;;;;;4989470;28;20234;-80
2023/01/04 00:08:58;;;;;;;5.10;2.40;;;4.60;99.90;;;;;;4991883;28;20228;-80
2023/01/04 00:11:25;;;;;;;5.47;3.03;;;4.70;99.90;;;;;;4986658;28;20234;-80
2023/01/04 00:13:56;;;;;;;5.07;2.23;;;4.60;99.90;;;;;;4984831;28;20860;-80
2023/01/04 00:16:25;;;;;;;2.47;2.03;;;4.70;99.90;;;;;;4985638;28;20224;-81
2023/01/04 00:18:53;;;;;;;6.70;2.43;;;4.70;99.90;;;;;;5005348;28;20231;-81
2023/01/04 00:21:23;;;;;;;5.37;2.13;;;4.70;99.90;;;;;;4999591;28;20218;-82
2023/01/04 00:23:52;;;;;;;4.93;1.97;;;4.70;99.90;;;;;;5000831;28;20716;-81
2023/01/04 00:26:20;;;;;;;4.90;2.10;;;4.70;99.90;;;;;;4980811;28;20798;-81
2023/01/04 00:28:47;;;;;;;3.87;1.60;;;4.70;99.90;;;;;;4984486;28;20236;-80
2023/01/04 00:31:15;;;;;;;5.03;1.77;;;4.70;99.90;;;;;;4980890;28;20224;-80
2023/01/04 00:33:42;;;;;;;7.70;2.10;;;4.70;99.90;;;;;;4994967;28;20239;-80
2023/01/04 00:36:10;;;;;;;4.37;1.97;;;4.70;99.90;;;;;;4994235;28;20218;-80
2023/01/04 00:38:39;;;;;;;5.10;2.17;;;4.80;99.90;;;;;;4999032;28;20227;-81
2023/01/04 00:41:08;;;;;;;4.13;1.67;;;4.90;99.90;;;;;;4995939;28;20314;-81
2023/01/04 00:43:35;;;;;;;4.70;2.20;;;4.90;99.90;;;;;;4998793;28;20762;-81
2023/01/04 00:46:02;;;;;;;4.47;1.77;;;4.90;99.90;;;;;;4999866;28;20311;-82
2023/01/04 00:48:29;;;;;;;2.87;1.60;;;5.00;99.90;;;;;;4998198;28;20220;-80
2023/01/04 00:50:57;;;;;;;4.10;2.00;;;5.00;99.90;;;;;;4979791;28;20953;-81
2023/01/04 00:53:23;;;;;;;3.73;1.60;;;5.00;99.90;;;;;;4992765;28;20279;-80
2023/01/04 00:55:51;;;;;;;3.50;2.00;;;5.00;99.90;;;;;;4984986;28;20232;-80
2023/01/04 00:58:18;;;;;;;3.10;1.60;;;5.00;99.90;;;;;;4999049;28;20227;-80
2023/01/04 01:00:45;;;;;;;3.63;1.73;;;5.00;99.90;;;;;;4998905;28;20239;-81
2023/01/04 01:03:11;;;;;;;3.10;1.47;;;5.00;99.90;;;;;;4994544;28;20225;-81
2023/01/04 01:05:38;;;;;;;9.23;1.93;;;5.00;99.90;;;;;;4979031;28;20222;-81
2023/01/04 01:10:46;;;;;;;3.30;1.50;;;5.00;99.90;;;;;;5000153;28;20228;-83
2023/01/04 01:13:14;;;;;;;6.17;1.97;;;5.00;99.90;;;;;;4983287;28;20912;-80
2023/01/04 01:15:42;;;;;;;6.73;1.40;;;5.10;99.90;;;;;;4997793;28;20823;-82
2023/01/04 01:18:08;;;;;;;5.83;2.27;;;5.10;99.90;;;;;;4997498;28;20224;-81
2023/01/04 01:20:40;;;;;;;3.93;1.60;;;5.10;99.90;;;;;;4989013;28;20305;-80
2023/01/04 01:23:06;;;;;;;3.60;1.80;;;5.10;99.90;;;;;;4998203;28;20777;-80
2023/01/04 01:25:33;;;;;;;3.83;2.00;;;5.20;99.90;;;;;;4976723;28;20225;-81
2023/01/04 01:28:00;;;;;;;4.23;1.33;;;5.20;99.90;;;;;;4999230;28;20240;-83
2023/01/04 01:30:28;;;;;;;2.47;1.20;;;5.30;99.90;;;;;;4983692;28;20593;-85
2023/01/04 01:32:54;;;;;;;4.93;1.50;;;5.30;99.90;;;;;;5001695;28;20243;-81
2023/01/04 01:35:21;;;;;;;5.37;1.50;;;5.30;99.90;;;;;;4994836;28;20926;-80
2023/01/04 01:37:48;;;;;;;3.17;1.30;;;5.40;99.90;;;;;;4972426;28;20225;-81
2023/01/04 01:40:15;;;;;;;3.67;1.30;;;5.40;99.90;;;;;;4982103;28;20462;-81
2023/01/04 01:42:41;;;;;;;3.67;1.27;;;5.40;99.90;;;;;;4996419;28;20229;-83
2023/01/04 01:45:26;;;;;;;2.67;1.60;;;5.40;99.90;;;;;;5002096;28;20232;-81
2023/01/04 01:47:59;;;;;;;4.50;1.30;;;5.40;99.90;;;;;;4980782;28;20228;-81
2023/01/04 01:50:29;;;;;;;2.70;1.40;;;5.40;99.90;;;;;;4994024;28;20230;-80
2023/01/04 01:52:58;;;;;;;5.00;1.50;;;5.50;99.90;;;;;;4978566;28;20232;-80
2023/01/04 01:55:26;;;;;;;3.97;1.37;;;5.50;99.90;;;;;;4996793;28;20231;-80
2023/01/04 01:57:55;;;;;;;2.23;1.23;;;5.50;99.90;;;;;;4982049;28;20236;-80
2023/01/04 02:00:21;;;;;;;6.37;1.50;;;5.50;99.90;;;;;;5004114;28;20224;-82
2023/01/04 02:02:57;;;;;;;4.73;1.57;;;5.50;99.90;;;;;;4999420;28;20237;-81
2023/01/04 02:05:24;;;;;;;2.63;1.70;;;5.50;99.90;;;;;;4995787;28;20956;-80
2023/01/04 02:07:52;;;;;;;3.07;1.37;;;5.60;99.90;;;;;;4986832;28;20235;-81
2023/01/04 02:10:19;;;;;;;2.10;1.40;;;5.60;99.90;;;;;;4985004;28;20238;-80
2023/01/04 02:12:47;;;;;;;3.33;1.10;;;5.60;99.90;;;;;;5002895;28;20233;-80
2023/01/04 02:15:13;;;;;;;2.97;1.40;;;5.60;99.90;;;;;;4976181;28;20228;-81
2023/01/04 02:17:48;;;;;;;5.37;1.53;;;5.60;99.90;;;;;;4986298;28;20287;-80
2023/01/04 02:20:30;;;;;;;3.13;1.47;;;5.70;99.90;;;;;;4985720;28;20240;-80
2023/01/04 02:23:32;;;;;;;6.10;1.47;;;5.70;99.90;;;;;;5000132;28;20225;-81
2023/01/04 02:26:32;;;;;;;6.90;1.60;;;5.70;99.90;;;;;;4990535;28;20812;-82
2023/01/04 02:29:30;;;;;;;3.03;1.30;;;5.70;99.90;;;;;;4990413;28;20220;-81
2023/01/04 02:32:01;;;;;;;3.10;1.30;;;5.70;99.90;;;;;;4984401;28;20226;-80
2023/01/04 02:34:36;;;;;;;3.43;1.40;;;5.70;99.90;;;;;;4987043;28;20214;-81
2023/01/04 02:37:11;;;;;;;2.90;1.33;;;5.70;99.90;;;;;;4988280;28;20684;-81
2023/01/04 02:39:45;;;;;;;2.50;1.40;;;5.70;99.90;;;;;;5001034;28;20841;-80
2023/01/04 02:42:19;;;;;;;5.27;1.40;;;5.70;99.90;;;;;;5005487;28;20231;-81
2023/01/04 02:44:53;;;;;;;2.77;1.50;;;5.70;99.90;;;;;;4976174;28;20234;-81
2023/01/04 02:50:31;;;;;;;2.77;1.47;;;5.60;99.90;;;;;;4977185;28;20220;-82
2023/01/04 02:53:00;;;;;;;3.17;1.50;;;5.70;99.90;;;;;;4988749;28;20252;-81
2023/01/04 02:55:32;;;;;;;3.63;1.40;;;5.70;99.90;;;;;;4996119;28;20224;-81
2023/01/04 02:58:03;;;;;;;6.17;2.00;;;5.70;99.90;;;;;;5003067;28;20597;-82
2023/01/04 03:06:30;;;;;;;4.70;1.80;;;5.70;99.90;;;;;;4996861;28;20227;-83
2023/01/04 03:09:02;;;;;;;3.23;1.60;;;5.70;99.90;;;;;;4981664;28;20252;-81
2023/01/04 03:14:36;;;;;;;3.77;1.30;;;5.60;99.90;;;;;;4955489;28;20237;-81
2023/01/04 03:17:06;;;;;;;5.07;1.83;;;5.70;99.90;;;;;;4980289;28;20227;-81
2023/01/04 03:19:53;;;;;;;1.70;1.30;;;5.70;99.90;;;;;;4997417;28;20251;-81
2023/01/04 03:36:37;;;;;;;2.23;1.20;;;5.80;99.90;;;;;;4995284;28;20393;-81
2023/01/04 03:50:33;;;;;;;2.23;1.03;;;5.90;99.90;;;;;;5003268;28;20949;-81
2023/01/04 03:53:02;;;;;;;2.30;1.30;;;5.90;99.90;;;;;;5002012;28;20771;-80
2023/01/04 03:55:30;;;;;;;5.30;1.40;;;5.90;99.90;;;;;;4998575;28;20231;-80
2023/01/04 03:57:59;;;;;;;5.17;1.60;;;5.80;99.90;;;;;;4996695;28;20224;-80
2023/01/04 04:00:25;;;;;;;3.57;1.30;;;5.80;99.90;;;;;;5004901;28;20228;-81
2023/01/04 04:02:52;;;;;;;3.83;1.40;;;5.80;99.90;;;;;;4996387;28;20233;-83
2023/01/04 04:08:27;;;;;;;4.57;1.50;;;5.70;99.90;;;;;;5000519;28;20707;-78
2023/01/04 04:10:55;;;;;;;3.73;1.30;;;5.70;99.90;;;;;;5003696;28;20225;-79
2023/01/04 04:13:22;;;;;;;6.17;2.07;;;5.60;99.90;;;;;;5002371;28;20745;-79
2023/01/04 04:15:51;;;;;;;6.60;1.67;;;5.60;99.90;;;;;;4999650;28;20230;-78
2023/01/04 04:18:18;;;;;;;4.80;1.50;;;5.60;99.90;;;;;;4998689;28;20239;-79
2023/01/04 04:20:45;;;;;;;3.87;1.53;;;5.50;99.90;;;;;;4998252;28;20233;-77
2023/01/04 04:23:13;;;;;;;5.07;1.50;;;5.50;99.90;;;;;;4997868;28;20659;-78
2023/01/04 04:25:39;;;;;;;2.80;1.50;;;5.50;99.90;;;;;;4999639;28;20251;-78
2023/01/04 04:28:06;;;;;;;4.63;1.53;;;5.40;99.90;;;;;;4999723;28;20228;-78
2023/01/04 04:30:33;;;;;;;6.83;1.50;;;5.40;99.90;;;;;;4998321;28;20248;-79
2023/01/04 04:32:59;;;;;;;2.90;1.40;;;5.40;99.90;;;;;;4998498;28;20229;-79
2023/01/04 04:35:26;;;;;;;3.30;1.67;;;5.30;99.90;;;;;;5000447;28;20312;-78
2023/01/04 04:37:52;;;;;;;4.03;1.50;;;5.30;99.90;;;;;;5000154;28;20233;-79
2023/01/04 04:43:08;;;;;;;4.77;1.40;;;5.20;99.90;;;;;;4997909;28;20715;-79
2023/01/04 04:45:35;;;;;;;3.80;1.73;;;5.20;99.90;;;;;;4999419;28;20228;-78
2023/01/04 04:48:01;;;;;;;3.23;1.80;;;5.20;99.90;;;;;;4999052;28;20224;-78
2023/01/04 04:50:28;;;;;;;5.93;1.40;;;5.10;99.90;;;;;;5000902;28;20224;-79
2023/01/04 04:52:55;;;;;;;4.77;1.80;;;5.10;99.90;;;;;;4989912;28;20228;-79
2023/01/04 04:55:23;;;;;;;6.87;2.00;;;5.10;99.90;;;;;;4998231;28;20223;-78
2023/01/04 04:57:49;;;;;;;4.97;2.23;;;5.10;99.90;;;;;;4995416;28;20243;-79
2023/01/04 05:00:16;;;;;;;3.93;1.83;;;5.10;99.90;;;;;;4999886;28;20224;-79
2023/01/04 05:02:43;;;;;;;2.87;1.63;;;5.00;99.90;;;;;;4985606;28;20266;-79
2023/01/04 05:05:10;;;;;;;5.23;1.93;;;5.00;99.90;;;;;;5017469;28;20706;-79
2023/01/04 05:07:37;;;;;;;3.20;1.93;;;5.00;99.90;;;;;;4998648;28;20250;-80
2023/01/04 05:10:04;;;;;;;4.03;1.60;;;5.00;99.90;;;;;;5004581;28;20224;-79
2023/01/04 05:15:17;;;;;;;4.17;2.30;;;5.00;99.90;;;;;;4998416;28;20219;-79
2023/01/04 05:17:43;;;;;;;5.70;1.87;;;5.00;99.90;;;;;;4983619;28;20234;-78
2023/01/04 05:20:11;;;;;;;5.53;1.97;;;5.00;99.90;;;;;;5000807;28;20224;-80
2023/01/04 05:22:37;;;;;;;5.13;1.77;;;5.10;99.90;;;;;;4996378;28;20231;-83
2023/01/04 05:25:05;;;;;;;5.37;1.77;;;5.00;99.90;;;;;;5000760;28;20233;-84
2023/01/04 05:27:33;;;;;;;6.17;2.00;;;5.00;99.90;;;;;;4978952;28;20232;-85
2023/01/04 05:32:44;;;;;;;4.67;2.30;;;5.10;99.90;;;;;;4999579;28;20320;-84
2023/01/04 05:35:10;;;;;;;3.90;2.10;;;5.00;99.90;;;;;;4976164;28;20296;-84
2023/01/04 05:37:37;;;;;;;5.77;2.40;;;5.00;99.90;;;;;;4981529;28;20230;-85
2023/01/04 05:40:04;;;;;;;7.37;2.00;;;5.00;99.90;;;;;;4983014;28;20228;-85
2023/01/04 05:42:32;;;;;;;4.23;1.93;;;5.00;99.90;;;;;;4982771;28;20229;-84
2023/01/04 05:44:59;;;;;;;4.10;2.20;;;5.10;99.90;;;;;;4984734;28;20228;-84
2023/01/04 05:47:27;;;;;;;9.17;2.37;;;5.00;99.90;;;;;;4981133;28;20234;-85
2023/01/04 05:49:54;;;;;;;8.57;2.20;;;5.10;99.90;;;;;;4992807;28;20220;-84
2023/01/04 05:52:21;;;;;;;5.53;2.30;;;5.10;99.90;;;;;;4983549;28;20225;-85
2023/01/04 05:54:48;;;;;;;9.70;2.33;;;5.10;99.90;;;;;;4997446;28;21490;-84
2023/01/04 05:57:15;;;;;;;6.07;2.27;;;5.10;99.90;;;;;;4977342;28;20225;-83
2023/01/04 05:59:43;;;;;;;9.53;2.50;;;5.10;99.90;;;;;;4982977;28;20230;-84
2023/01/04 06:02:15;;;;;;;13.83;2.77;;;5.10;99.90;;;;;;4998449;28;20231;-84
2023/01/04 06:04:41;;;;;;;4.77;1.83;;;5.10;99.90;;;;;;4975761;28;20293;-85
2023/01/04 06:07:08;;;;;;;8.10;1.97;;;5.10;99.90;;;;;;4978595;28;20224;-82
2023/01/04 06:09:35;;;;;;;5.63;1.80;;;5.20;99.90;;;;;;4976817;28;20243;-79
2023/01/04 06:12:02;;;;;;;6.53;2.00;;;5.20;99.90;;;;;;4992764;28;20322;-79
2023/01/04 06:14:28;;;;;;;3.67;1.40;;;5.30;99.90;;;;;;4977553;28;20236;-80
2023/01/04 06:16:56;;;;;;;3.70;1.90;;;5.30;99.90;;;;;;4977574;28;20228;-79
2023/01/04 06:19:24;;;;;;;4.40;1.70;;;5.40;99.90;;;;;;4979531;28;20238;-81
2023/01/04 06:21:51;;;;;;;4.77;2.10;;;5.40;99.90;;;;;;4993453;28;20665;-78
2023/01/04 06:24:17;;;;;;;2.30;1.50;;;5.40;99.90;;;;;;4977705;28;20226;-79
2023/01/04 06:26:44;;;;;;;4.23;1.60;;;5.40;99.90;;;;;;4981368;28;20240;-78
2023/01/04 06:29:11;;;;;;;3.37;1.50;;;5.40;99.90;;;;;;4992353;28;20220;-79
2023/01/04 06:31:38;;;;;;;3.87;1.70;;;5.50;99.90;;;;;;4994752;28;20232;-79
2023/01/04 06:34:06;;;;;;;3.60;1.43;;;5.50;99.90;;;;;;4981541;28;20224;-79
2023/01/04 06:36:34;;;;;;;3.33;1.67;;;5.50;99.90;;;;;;4995855;28;20767;-79
2023/01/04 06:39:01;;;;;;;2.30;1.60;;;5.60;99.90;;;;;;4996680;28;20230;-79
2023/01/04 06:41:28;;;;;;;3.53;1.57;;;5.60;99.90;;;;;;4995987;28;20245;-79
2023/01/04 06:43:54;;;;;;;9.63;3.97;;;5.70;99.90;;;;;;4996207;28;20224;-79
2023/01/04 06:46:21;;;;;;;6.67;3.90;;;5.70;99.90;;;;;;4999522;28;20890;-78
2023/01/04 06:48:48;;;;;;;6.40;3.33;;;5.80;99.90;;;;;;4975228;28;20230;-79
2023/01/04 06:51:16;;;;;;;4.23;2.30;;;5.80;99.90;;;;;;5006269;28;20237;-79
2023/01/04 06:53:42;;;;;;;4.33;2.03;;;5.80;99.90;;;;;;5006634;28;20849;-79
2023/01/04 06:56:09;;;;;;;3.13;1.40;;;5.80;99.90;;;;;;4986404;28;20857;-79
2023/01/04 06:58:36;;;;;;;2.20;1.50;;;5.90;99.90;;;;;;5003098;28;20332;-79
2023/01/04 07:01:03;;;;;;;2.87;1.50;;;5.90;99.90;;;;;;4998138;28;20230;-79
2023/01/04 07:03:29;;;;;;;2.63;1.30;;;6.00;99.90;;;;;;4985426;28;20233;-79
2023/01/04 07:05:56;;;;;;;3.13;1.50;;;6.00;99.90;;;;;;4988357;28;20239;-79
2023/01/04 07:08:25;;;;;;;2.77;1.57;;;6.10;99.90;;;;;;5005469;28;20256;-79
2023/01/04 07:10:52;;;;;;;3.77;1.40;;;6.10;99.90;;;;;;5007298;28;20245;-79
2023/01/04 07:13:18;;;;;;;2.83;1.40;;;6.10;99.90;;;;;;4975191;28;20229;-79
2023/01/04 07:15:45;;;;;;;2.50;1.53;;;6.20;99.90;;;;;;4964153;28;20232;-79
2023/01/04 07:18:12;;;;;;;3.20;1.43;;;6.20;99.90;;;;;;5002518;28;20225;-79
2023/01/04 07:20:39;;;;;;;2.07;1.37;;;6.30;99.90;;;;;;4992742;28;20886;-79
2023/01/04 07:23:07;;;;;;;3.07;1.40;;;6.30;99.90;;;;;;5006685;28;20233;-78
2023/01/04 07:25:35;;;;;;;5.40;1.20;;;6.30;99.90;;;;;;4989750;28;20228;-78
2023/01/04 07:28:02;;;;;;;1.80;1.60;;;6.40;99.90;;;;;;4989563;28;20253;-78
2023/01/04 07:30:29;;;;;;;4.07;1.53;;;6.40;99.90;;;;;;5003038;28;20226;-79
2023/01/04 07:32:56;;;;;;;2.33;1.20;;;6.40;99.90;;;;;;5003179;28;20228;-79
2023/01/04 07:35:23;;;;;;;2.20;1.30;;;6.50;99.90;;;;;;4994720;28;20739;-79
2023/01/04 07:37:50;;;;;;;1.60;1.30;;;6.50;99.90;;;;;;4982957;28;20227;-78
2023/01/04 07:40:17;;;;;;;2.10;1.20;;;6.60;99.90;;;;;;5004444;28;20229;-79
2023/01/04 07:42:53;;;;;;;1.53;1.43;;;6.60;99.90;;;;;;4987655;28;20235;-79
2023/01/04 07:45:19;;;;;;;1.70;1.03;;;6.70;99.90;;;;;;5003631;28;20240;-79
2023/01/04 07:47:46;;;;;;;4.63;1.43;;;6.70;99.90;;;;;;4986897;28;20833;-79
2023/01/04 07:50:13;;;;;;;1.80;1.17;;;6.80;99.90;;;;;;5005767;28;20892;-79
2023/01/04 07:52:39;;;;;;;1.60;1.30;;;6.80;99.90;;;;;;4979523;28;20235;-79
2023/01/04 07:55:07;;;;;;;1.30;1.10;;;6.80;99.90;;;;;;4998191;28;20223;-79
2023/01/04 07:57:34;;;;;;;1.73;1.00;;;6.90;99.90;;;;;;4988679;28;20581;-79
2023/01/04 08:00:02;;;;;;;2.40;1.33;;;6.90;99.90;;;;;;4999684;28;20227;-79
2023/01/04 08:02:38;;;;;;;1.67;1.20;;;6.90;99.90;;;;;;5005476;28;20317;-78
2023/01/04 08:05:05;;;;;;;3.53;1.50;;;7.00;99.90;;;;;;5004474;28;20280;-78
2023/01/04 08:07:32;;;;;;;1.90;1.50;;;7.00;99.90;;;;;;5004859;28;20218;-78
2023/01/04 08:09:59;;;;;;;2.50;1.70;;;7.10;99.90;;;;;;4991229;28;20220;-78
2023/01/04 08:12:25;;;;;;;4.13;1.47;;;7.10;99.90;;;;;;4986246;28;20255;-78
2023/01/04 08:14:52;;;;;;;2.53;1.70;;;7.20;99.90;;;;;;4991583;28;20243;-78
2023/01/04 08:17:20;;;;;;;2.13;1.93;;;7.20;99.90;;;;;;4986669;28;20228;-78
2023/01/04 08:19:46;;;;;;;2.73;2.00;;;7.30;99.90;;;;;;4988966;28;20741;-78
2023/01/04 08:22:13;;;;;;;2.20;2.00;;;7.30;99.90;;;;;;4988704;28;20240;-79
2023/01/04 08:24:40;;;;;;;2.47;2.27;;;7.30;99.90;;;;;;5005186;28;20248;-78
2023/01/04 08:27:07;;;;;;;2.43;2.20;;;7.40;99.90;;;;;;4979842;28;20697;-78
2023/01/04 08:29:33;;;;;;;3.17;2.30;;;7.40;99.90;;;;;;4985217;28;20652;-78
2023/01/04 08:32:00;;;;;;;2.07;1.93;;;7.50;99.90;;;;;;4970455;28;20220;-79
2023/01/04 08:34:28;;;;;;;3.20;2.30;;;7.50;99.90;;;;;;4984096;28;20314;-78
2023/01/04 08:36:55;;;;;;;3.40;2.33;;;7.50;99.90;;;;;;4980934;28;20227;-78
2023/01/04 08:39:22;;;;;;;3.10;2.20;;;7.60;99.90;;;;;;4985765;28;20604;-78
2023/01/04 08:41:52;;;;;;;3.97;2.30;;;7.60;99.90;;;;;;4985510;28;20240;-78
2023/01/04 08:44:19;;;;;;;2.37;2.17;;;7.60;99.90;;;;;;4990684;28;20254;-79
2023/01/04 08:46:46;;;;;;;2.87;2.13;;;7.60;99.90;;;;;;5004365;28;20248;-79
2023/01/04 08:49:13;;;;;;;2.80;2.17;;;7.70;99.90;;;;;;4985342;28;20223;-78
2023/01/04 08:51:42;;;;;;;2.23;2.03;;;7.70;99.90;;;;;;4988581;28;20231;-79
2023/01/04 08:54:09;;;;;;;4.00;2.40;;;7.80;99.90;;;;;;5001489;28;20229;-78
2023/01/04 08:56:37;;;;;;;2.43;1.97;;;7.80;99.90;;;;;;4985098;28;20245;-79
2023/01/04 08:59:04;;;;;;;4.33;2.33;;;7.80;99.90;;;;;;4999084;28;20221;-79
2023/01/04 09:01:31;;;;;;;3.57;2.33;;;7.90;99.90;;;;;;4984201;28;20232;-80
2023/01/04 09:03:58;;;;;;;2.50;1.90;;;7.90;99.90;;;;;;5003410;28;20227;-79
2023/01/04 09:06:25;;;;;;;2.43;1.87;;;8.00;99.90;;;;;;4980195;28;20247;-79
2023/01/04 09:08:56;;;;;;;1.87;1.77;;;8.00;99.90;;;;;;4982381;28;20990;-79
2023/01/04 09:11:23;;;;;;;2.27;1.93;;;8.00;99.90;;;;;;5003088;28;20218;-79
2023/01/04 09:13:55;;;;;;;1.90;1.80;;;8.10;99.90;;;;;;5003483;28;20236;-78
2023/01/04 09:16:22;;;;;;;2.73;1.80;;;8.10;99.90;;;;;;4987423;28;20231;-78
2023/01/04 09:18:49;;;;;;;2.00;1.80;;;8.20;99.90;;;;;;4985830;28;20234;-79
2023/01/04 09:21:18;;;;;;;2.13;1.93;;;8.20;99.90;;;;;;5001010;28;20220;-79
2023/01/04 09:23:45;;;;;;;4.43;1.87;;;8.20;99.90;;;;;;4979496;28;20225;-79
2023/01/04 09:26:15;;;;;;;2.17;1.80;;;8.20;99.90;;;;;;4980938;28;20263;-78
2023/01/04 09:28:43;;;;;;;1.87;1.77;;;8.30;99.90;;;;;;4979241;28;20233;-79
2023/01/04 09:31:11;;;;;;;4.17;1.80;;;8.30;99.90;;;;;;5003436;28;20212;-79
2023/01/04 09:33:38;;;;;;;2.50;2.20;;;8.30;99.90;;;;;;4997586;28;20237;-79
2023/01/04 09:36:06;;;;;;;3.50;2.40;;;8.40;99.90;;;;;;4985357;28;20221;-78
2023/01/04 09:38:34;;;;;;;3.30;1.90;;;8.40;99.90;;;;;;5004178;28;20274;-78
2023/01/04 09:41:08;;;;;;;2.50;2.30;;;8.40;99.90;;;;;;5004826;28;20287;-79
2023/01/04 09:43:43;;;;;;;2.30;2.10;;;8.50;99.90;;;;;;4975556;28;20233;-79
2023/01/04 09:46:12;;;;;;;2.00;1.90;;;8.50;99.90;;;;;;4981105;28;20223;-79
2023/01/04 09:48:42;;;;;;;2.27;2.07;;;8.60;99.90;;;;;;5002108;28;20252;-79
2023/01/04 09:51:15;;;;;;;2.57;1.90;;;8.60;99.90;;;;;;5004615;28;20226;-79
2023/01/04 09:53:46;;;;;;;2.77;2.03;;;8.60;99.90;;;;;;4984683;28;20234;-79
2023/01/04 09:56:20;;;;;;;1.70;1.60;;;8.60;99.90;;;;;;4998484;28;20229;-78
2023/01/04 09:58:50;;;;;;;2.17;1.97;;;8.70;99.90;;;;;;5004085;28;20241;-79
2023/01/04 10:01:20;;;;;;;3.50;2.23;;;8.70;99.90;;;;;;5005262;28;20222;-78
2023/01/04 10:06:22;;;;;;;2.70;2.47;;;8.70;99.90;;;;;;4985451;28;20232;-84
2023/01/04 10:08:49;;;;;;;2.33;2.03;;;8.80;99.90;;;;;;4969849;28;20235;-83
2023/01/04 10:11:29;;;;;;;2.33;2.13;;;8.80;99.90;;;;;;4970130;28;20710;-83
2023/01/04 10:14:10;;;;;;;2.37;2.17;;;8.80;99.90;;;;;;4969144;28;20288;-83
2023/01/04 10:16:48;;;;;;;3.30;1.93;;;8.90;99.90;;;;;;4986392;28;20587;-83
2023/01/04 10:19:30;;;;;;;2.13;1.90;;;8.90;99.90;;;;;;4970818;28;20241;-83
2023/01/04 10:22:01;;;;;;;2.10;2.00;;;8.90;99.90;;;;;;4973332;28;20233;-83
2023/01/04 10:24:43;;;;;;;1.67;1.57;;;9.00;99.90;;;;;;4990032;28;20230;-83
2023/01/04 10:27:20;;;;;;;2.33;1.83;;;9.00;99.90;;;;;;4966236;28;20237;-84
2023/01/04 10:30:05;;;;;;;3.33;1.70;;;9.00;99.90;;;;;;4974254;28;20229;-84
2023/01/04 10:32:37;;;;;;;1.97;1.47;;;9.00;99.90;;;;;;4982233;28;20253;-83
2023/01/04 10:35:19;;;;;;;1.50;1.40;;;9.00;99.90;;;;;;4974987;28;20229;-83
2023/01/04 10:37:52;;;;;;;1.57;1.23;;;9.10;99.90;;;;;;4980308;28;20233;-84
2023/01/04 10:40:19;;;;;;;1.40;1.30;;;9.10;99.90;;;;;;4991261;28;20656;-84
2023/01/04 10:42:55;;;;;;;1.20;1.10;;;9.10;99.90;;;;;;4973373;28;20241;-84
2023/01/04 10:45:32;;;;;;;1.37;1.07;;;9.20;99.90;;;;;;4973115;28;20240;-83
2023/01/04 10:48:08;;;;;;;2.00;1.37;;;9.20;99.90;;;;;;4972002;28;20259;-83
2023/01/04 10:50:44;;;;;;;2.80;1.47;;;9.20;99.90;;;;;;4990574;28;20226;-83
2023/01/04 10:53:16;;;;;;;1.83;1.50;;;9.20;99.90;;;;;;4975596;28;20316;-84
2023/01/04 10:55:49;;;;;;;1.30;1.20;;;9.20;99.90;;;;;;4989743;28;20316;-83
2023/01/04 10:58:21;;;;;;;1.50;1.40;;;9.20;99.90;;;;;;4990475;28;20269;-83
2023/01/04 11:01:00;;;;;;;1.40;1.30;;;9.20;99.90;;;;;;4989740;28;20242;-83
2023/01/04 11:03:33;;;;;;;1.50;1.27;;;9.30;99.90;;;;;;4988122;28;20316;-83
2023/01/04 11:06:07;;;;;;;1.90;1.50;;;9.30;99.90;;;;;;4990578;28;20235;-83
2023/01/04 11:08:40;;;;;;;1.53;1.33;;;9.30;99.90;;;;;;4990207;28;20295;-83
2023/01/04 11:11:12;;;;;;;1.30;1.20;;;9.30;99.90;;;;;;4990660;28;20320;-83
2023/01/04 11:13:39;;;;;;;1.60;1.50;;;9.30;99.90;;;;;;4978406;28;20240;-83
2023/01/04 11:16:09;;;;;;;1.43;1.20;;;9.30;99.90;;;;;;4989506;28;20332;-84
2023/01/04 11:18:39;;;;;;;1.60;1.50;;;9.40;99.90;;;;;;4972364;28;20291;-83
2023/01/04 11:21:11;;;;;;;1.37;1.27;;;9.40;99.90;;;;;;4990375;28;20689;-83
2023/01/04 11:23:38;;;;;;;1.40;1.30;;;9.40;99.90;;;;;;4971510;28;20256;-84
2023/01/04 11:26:09;;;;;;;1.27;1.17;;;9.40;99.90;;;;;;4972796;28;20247;-84
2023/01/04 11:28:45;;;;;;;1.40;1.30;;;9.40;99.90;;;;;;4988402;28;20246;-83
2023/01/04 11:31:22;;;;;;;1.27;1.10;;;9.40;99.90;;;;;;4988059;28;20329;-83
2023/01/04 11:33:59;;;;;;;1.23;1.13;;;9.50;99.90;;;;;;4970862;28;20250;-83
2023/01/04 11:36:36;;;;;;;1.00;1.00;;;9.50;99.90;;;;;;4956890;28;20228;-83
2023/01/04 11:39:05;;;;;;;1.20;1.10;;;9.50;99.90;;;;;;4952824;28;20233;-83
2023/01/04 11:41:31;;;;;;;1.47;1.37;;;9.50;99.90;;;;;;4960385;28;20315;-83
2023/01/04 11:44:00;;;;;;;1.17;1.00;;;9.50;99.90;;;;;;4989375;28;20790;-83
2023/01/04 11:46:30;;;;;;;1.93;1.10;;;9.60;99.90;;;;;;4970924;28;20238;-84
2023/01/04 11:49:05;;;;;;;2.80;1.70;;;9.60;99.90;;;;;;4990846;28;20275;-84
2023/01/04 11:51:38;;;;;;;1.00;0.90;;;9.60;99.90;;;;;;4987690;28;20236;-84
2023/01/04 11:54:17;;;;;;;0.80;0.80;;;9.60;99.90;;;;;;4987638;28;20260;-83
2023/01/04 11:56:59;;;;;;;0.90;0.80;;;9.60;99.90;;;;;;4972778;28;20244;-84
2023/01/04 11:59:26;;;;;;;1.00;0.90;;;9.70;99.90;;;;;;4989336;28;20236;-84
2023/01/04 12:02:18;;;;;;;1.10;0.93;;;9.70;99.90;;;;;;4981220;28;20788;-83
2023/01/04 12:04:47;;;;;;;1.00;0.90;;;9.70;99.90;;;;;;4976784;28;20229;-83
2023/01/04 12:07:29;;;;;;;1.30;0.83;;;9.70;99.90;;;;;;4970482;28;20228;-83
2023/01/04 12:10:00;;;;;;;0.87;0.80;;;9.70;99.90;;;;;;4989162;28;20228;-84
2023/01/04 12:12:30;;;;;;;1.70;1.00;;;9.70;99.90;;;;;;4988204;28;20689;-84
2023/01/04 12:15:02;;;;;;;0.77;0.70;;;9.70;99.90;;;;;;4971890;28;20466;-83
2023/01/04 12:17:41;;;;;;;0.83;0.63;;;9.70;99.90;;;;;;4970607;28;20263;-83
2023/01/04 12:20:15;;;;;;;0.97;0.50;;;9.80;99.90;;;;;;4972900;28;20262;-84
2023/01/04 12:22:41;;;;;;;1.37;0.70;;;9.80;99.90;;;;;;4971836;28;20247;-84
2023/01/04 12:25:25;;;;;;;1.20;0.50;;;9.80;99.90;;;;;;4971412;28;20252;-83
2023/01/04 12:27:54;;;;;;;1.53;0.70;;;9.80;99.90;;;;;;4989375;28;20237;-83
2023/01/04 12:30:35;;;;;;;0.50;0.50;;;9.80;99.90;;;;;;4971122;28;20700;-84
2023/01/04 12:33:37;;;;;;;0.40;0.40;;;9.80;99.90;;;;;;4970363;28;20283;-84
2023/01/04 12:36:05;;;;;;;0.40;0.40;;;9.80;99.90;;;;;;4988923;28;20232;-83
2023/01/04 12:38:58;;;;;;;1.03;0.50;;;9.80;99.90;;;;;;4988204;28;20271;-83
2023/01/04 12:42:14;;;;;;;0.70;0.70;;;9.80;99.90;;;;;;4969760;28;20248;-83
2023/01/04 12:45:10;;;;;;;0.87;0.60;;;9.90;99.90;;;;;;4987885;28;20236;-83
2023/01/04 12:50:29;;;;;;;1.20;0.50;;;9.90;99.90;;;;;;4968852;28;20232;-83
2023/01/04 12:52:59;;;;;;;0.57;0.57;;;9.90;99.90;;;;;;4969593;28;20249;-83
2023/01/04 12:55:59;;;;;;;0.60;0.60;;;9.90;99.90;;;;;;4970505;28;20247;-83
2023/01/04 12:58:59;;;;;;;0.60;0.60;;;9.90;99.90;;;;;;4970122;28;20229;-84
2023/01/04 13:01:27;;;;;;;2.00;1.00;;;9.90;99.90;;;;;;4969783;28;20226;-84
2023/01/04 13:03:59;;;;;;;0.60;0.60;;;10.00;99.90;;;;;;4986816;28;20234;-83
2023/01/04 13:06:33;;;;;;;1.67;0.90;;;9.90;99.90;;;;;;4969742;28;20233;-83
2023/01/04 13:09:01;;;;;;;2.13;0.73;;;10.00;99.90;;;;;;4971254;28;20302;-83
2023/01/04 13:11:44;;;;;;;1.37;0.80;;;10.00;99.90;;;;;;4979919;28;20718;-83
2023/01/04 13:14:22;;;;;;;0.80;0.80;;;10.00;99.90;;;;;;4966757;28;20235;-83
2023/01/04 13:17:07;;;;;;;2.57;0.97;;;10.00;99.90;;;;;;4950779;28;20240;-83
2023/01/04 13:19:42;;;;;;;1.33;0.73;;;10.00;99.90;;;;;;4966302;28;20249;-83
2023/01/04 13:22:18;;;;;;;0.90;0.90;;;10.00;99.90;;;;;;4968610;28;20237;-84
2023/01/04 13:24:45;;;;;;;2.53;1.07;;;10.00;99.90;;;;;;4986998;28;20315;-83
2023/01/04 13:27:17;;;;;;;5.50;1.10;;;10.10;99.90;;;;;;4968829;28;20713;-83
2023/01/04 13:29:44;;;;;;;1.77;1.10;;;10.10;99.90;;;;;;4960192;28;20245;-83
2023/01/04 13:32:13;;;;;;;1.10;1.00;;;10.10;99.90;;;;;;4968931;28;20232;-83
2023/01/04 13:34:51;;;;;;;1.20;0.80;;;10.10;99.90;;;;;;4987528;28;20233;-83
2023/01/04 13:37:27;;;;;;;1.80;1.13;;;10.10;99.90;;;;;;4966887;28;20722;-83
2023/01/04 13:40:21;;;;;;;1.13;1.00;;;10.10;99.90;;;;;;4987298;28;20229;-83
2023/01/04 13:42:51;;;;;;;1.33;1.00;;;10.10;99.90;;;;;;4986084;28;20644;-83
2023/01/04 13:45:41;;;;;;;1.90;1.20;;;10.20;99.90;;;;;;4969179;28;20240;-83
2023/01/04 13:48:12;;;;;;;1.40;1.00;;;10.20;99.90;;;;;;4968534;28;20700;-84
2023/01/04 13:50:42;;;;;;;1.70;1.10;;;10.20;99.90;;;;;;4987154;28;20240;-83
2023/01/04 13:53:20;;;;;;;1.53;1.00;;;10.20;99.90;;;;;;4985914;28;20260;-83
2023/01/04 13:55:53;;;;;;;2.23;1.00;;;10.20;99.90;;;;;;4970172;28;20300;-83
2023/01/04 13:58:22;;;;;;;2.53;1.40;;;10.20;99.90;;;;;;4984970;28;20224;-83
2023/01/04 14:00:53;;;;;;;1.77;1.20;;;10.20;99.90;;;;;;4969881;28;20241;-83
2023/01/04 14:03:28;;;;;;;2.43;1.13;;;10.20;99.90;;;;;;4968019;28;20298;-83
2023/01/04 14:06:01;;;;;;;2.23;1.37;;;10.20;99.90;;;;;;4968978;28;20248;-83
2023/01/04 14:08:34;;;;;;;3.10;1.10;;;10.20;99.90;;;;;;4986146;28;20311;-84
2023/01/04 14:11:02;;;;;;;2.83;1.23;;;10.20;99.90;;;;;;4969239;28;20966;-84